עמוד ראשי
METAR-TAF:

METAR-TAF

שדות תעופה :

Kosrae, מיקרונזיה

קו רוחב: 05-21N, קו אורך: 162-57E, גובה: 3מטר

תצפית מזג אוויר נוכחית

הדו"ח נערך לפני 4 שעות ו 48דקות, בשעה 06:50 UTC
רוח 3קשר עם כיוונים משתנים
טמפרטורת 30 צלסיוס
לחות 79%
לחץ 1007 hPa
ראות: 16.1קילומטר
עננים בינוניים בגובה 2000רגל
עננים בינוניים בגובה 13000רגל
עננים בינוניים בגובה 30000רגל

METAR: PTSA 170650Z VRB03KT 10SM BKN020 BKN130 BKN300 30/26 A2973 RMK LAST

זמן: 22:38 (11:38 UTC)

תחזית

הדו"ח נערך לפני 6 שעות ו 18דקות, בשעה 05:20 UTC
תחזית בתוקף מ 17 ב 06 UTC עד 18 ב 06 UTC
רוח 8קשר מכיוון מזרח
ראות: 10קילומטר
עננים פזורים בגובה 2000רגל
עננים בינוניים בגובה 12000רגל
ממטרים במרחב
זמנית מ -
17 ב 06 UTC עד 17 ב 10 UTC
עננים בינוניים בגובה 2000רגל

TAF: PTSA 170520Z 1706/1806 08008KT P6SM VCSH SCT020 BKN120 TEMPO 1706/1710 BKN020

תצפיות ותחזיות מזג אוויר לגבי יותר מ- 4,000 שדות תעופה ברחבי העולם. דוחות METAR ו- TAF.

התחנות הזמינות מסומנות בנקודות צהובות ואדומות על גבי המפה.

העבר את העכבר לנקודה הצבעונית על מנת לראות את שם התחנה.

לאחר מכן, לחץ כדי לראות את תוכן ואת תחזיות מזג האוויר.

כדי לשנות את המפה: לחץ על הכפתורים הירוקים עם הפלוס השחור כדי להתקרב; על הכפתור הירוק עם המקף כדי להתרחק; או בחיצים הירוקים למפות סמוכות.


METAR-TAF: